createdAt,value
2023-02-04T00:01:58.387Z,101795.00
2023-02-04T00:04:25.166Z,101804.22
2023-02-04T00:06:51.900Z,101809.03
2023-02-04T00:09:18.827Z,101808.94
2023-02-04T00:11:45.768Z,101817.94
2023-02-04T00:14:12.534Z,101828.06
2023-02-04T00:16:39.280Z,101840.41
2023-02-04T00:19:06.050Z,101848.88
2023-02-04T00:21:32.863Z,101849.75
2023-02-04T00:23:59.601Z,101861.75
2023-02-04T00:26:26.370Z,101879.47
2023-02-04T00:28:53.116Z,101884.72
2023-02-04T00:31:19.986Z,101879.91
2023-02-04T00:33:46.808Z,101892.25
2023-02-04T00:36:13.542Z,101906.47
2023-02-04T00:38:40.301Z,101920.91
2023-02-04T00:41:07.085Z,101925.16
2023-02-04T00:43:33.883Z,101932.28
2023-02-04T00:46:00.759Z,101949.81
2023-02-04T00:48:27.516Z,101958.53
2023-02-04T00:50:54.338Z,101959.94
2023-02-04T00:53:21.150Z,101962.25
2023-02-04T00:55:47.947Z,101974.47
2023-02-04T00:58:14.722Z,101993.78
2023-02-04T01:00:41.510Z,101993.97
2023-02-04T01:03:08.392Z,102000.13
2023-02-04T01:05:35.173Z,101993.50
2023-02-04T01:08:01.905Z,102009.81
2023-02-04T01:10:28.978Z,102014.72
2023-02-04T01:12:56.057Z,102021.41
2023-02-04T01:15:22.986Z,102025.16
2023-02-04T01:17:49.784Z,102034.75
2023-02-04T01:20:16.528Z,102043.06
2023-02-04T01:22:43.380Z,102044.63
2023-02-04T01:25:10.211Z,102047.97
2023-02-04T01:27:37.011Z,102044.84
2023-02-04T01:30:03.743Z,102055.72
2023-02-04T01:32:30.503Z,102065.53
2023-02-04T01:34:57.358Z,102062.16
2023-02-04T01:37:24.163Z,102068.66
2023-02-04T01:39:50.912Z,102075.69
2023-02-04T01:42:17.642Z,102069.19
2023-02-04T01:44:44.390Z,102079.13
2023-02-04T01:47:11.158Z,102082.06
2023-02-04T01:49:37.902Z,102090.19
2023-02-04T01:52:04.644Z,102098.22
2023-02-04T01:54:31.395Z,102102.53
2023-02-04T01:56:58.170Z,102124.81
2023-02-04T01:59:24.899Z,102119.06
2023-02-04T02:01:51.671Z,102131.28
2023-02-04T02:04:18.402Z,102151.19
2023-02-04T02:06:45.191Z,102142.03
2023-02-04T02:09:12.002Z,102156.75
2023-02-04T02:11:38.801Z,102162.19
2023-02-04T02:14:05.554Z,102166.38
2023-02-04T02:16:32.385Z,102176.91
2023-02-04T02:18:59.904Z,102175.47
2023-02-04T02:21:26.630Z,102197.19
2023-02-04T02:23:53.399Z,102197.19
2023-02-04T02:26:20.139Z,102201.56
2023-02-04T02:28:47.716Z,102216.66
2023-02-04T02:31:14.554Z,102218.66
2023-02-04T02:33:41.413Z,102236.13
2023-02-04T02:36:08.142Z,102245.47
2023-02-04T02:38:34.895Z,102240.09
2023-02-04T02:41:01.695Z,102257.53
2023-02-04T02:43:28.497Z,102262.19
2023-02-04T02:45:55.887Z,102272.72
2023-02-04T02:48:22.704Z,102270.41
2023-02-04T02:50:49.447Z,102276.06
2023-02-04T02:53:16.431Z,102276.34
2023-02-04T02:55:43.163Z,102280.63
2023-02-04T02:58:09.895Z,102298.16
2023-02-04T03:00:36.660Z,102296.81
2023-02-04T03:03:03.414Z,102296.94
2023-02-04T03:05:30.142Z,102298.47
2023-02-04T03:07:56.901Z,102302.75
2023-02-04T03:10:23.683Z,102312.44
2023-02-04T03:12:50.433Z,102312.97
2023-02-04T03:15:17.198Z,102319.44
2023-02-04T03:17:43.998Z,102326.84
2023-02-04T03:20:10.787Z,102338.47
2023-02-04T03:22:37.528Z,102343.97
2023-02-04T03:25:04.327Z,102335.88
2023-02-04T03:27:31.098Z,102357.53
2023-02-04T03:29:57.910Z,102360.75
2023-02-04T03:32:24.682Z,102366.06
2023-02-04T03:34:51.439Z,102373.66
2023-02-04T03:37:18.222Z,102381.38
2023-02-04T03:39:44.995Z,102384.84
2023-02-04T03:42:11.741Z,102392.09
2023-02-04T03:44:38.495Z,102406.50
2023-02-04T03:47:05.217Z,102405.34
2023-02-04T03:49:32.194Z,102404.38
2023-02-04T03:51:59.075Z,102409.44
2023-02-04T03:54:25.923Z,102423.63
2023-02-04T03:56:52.694Z,102427.06
2023-02-04T03:59:19.540Z,102434.38
2023-02-04T04:01:46.327Z,102436.81
2023-02-04T04:04:13.136Z,102451.22
2023-02-04T04:06:39.966Z,102455.16
2023-02-04T04:09:06.728Z,102462.28
2023-02-04T04:11:33.468Z,102468.78
2023-02-04T04:14:01.300Z,102470.78
2023-02-04T04:16:28.383Z,102476.50
2023-02-04T04:18:55.182Z,102478.22
2023-02-04T04:21:21.986Z,102485.38
2023-02-04T04:23:48.875Z,102490.31
2023-02-04T04:26:17.218Z,102488.56
2023-02-04T04:28:44.041Z,102497.78
2023-02-04T04:31:10.868Z,102508.88
2023-02-04T04:33:38.901Z,102511.66
2023-02-04T04:36:05.647Z,102525.59
2023-02-04T04:38:32.642Z,102522.03
2023-02-04T04:40:59.373Z,102522.56
2023-02-04T04:43:26.209Z,102525.94
2023-02-04T04:45:52.942Z,102531.38
2023-02-04T04:48:21.383Z,102537.47
2023-02-04T04:50:48.234Z,102547.03
2023-02-04T04:53:15.086Z,102546.38
2023-02-04T04:55:41.824Z,102546.47
2023-02-04T04:58:08.613Z,102552.88
2023-02-04T05:00:35.447Z,102563.81
2023-02-04T05:03:02.252Z,102568.88
2023-02-04T05:05:29.039Z,102577.34
2023-02-04T05:07:55.899Z,102581.47
2023-02-04T05:10:22.679Z,102590.06
2023-02-04T05:12:49.442Z,102596.03
2023-02-04T05:15:16.199Z,102598.78
2023-02-04T05:17:42.972Z,102609.72
2023-02-04T05:20:09.739Z,102613.94
2023-02-04T05:22:36.469Z,102625.28
2023-02-04T05:25:03.234Z,102630.78
2023-02-04T05:27:29.999Z,102625.97
2023-02-04T05:29:56.834Z,102631.22
2023-02-04T05:32:23.564Z,102638.56
2023-02-04T05:34:50.310Z,102639.28
2023-02-04T05:37:18.937Z,102648.06
2023-02-04T05:39:45.746Z,102642.69
2023-02-04T05:42:12.499Z,102658.66
2023-02-04T05:44:39.222Z,102662.41
2023-02-04T05:47:05.942Z,102670.75
2023-02-04T05:49:32.696Z,102667.25
2023-02-04T05:51:59.474Z,102662.44
2023-02-04T05:54:26.280Z,102665.63
2023-02-04T05:56:53.074Z,102667.00
2023-02-04T05:59:19.808Z,102670.38
2023-02-04T06:01:46.565Z,102672.56
2023-02-04T06:04:15.272Z,102675.28
2023-02-04T06:06:42.126Z,102675.28
2023-02-04T06:09:08.845Z,102687.41
2023-02-04T06:11:35.602Z,102686.50
2023-02-04T06:14:02.395Z,102692.00
2023-02-04T06:16:29.165Z,102696.97
2023-02-04T06:18:55.925Z,102700.38
2023-02-04T06:21:22.672Z,102694.84
2023-02-04T06:23:49.401Z,102702.34
2023-02-04T06:26:16.306Z,102706.63
2023-02-04T06:28:43.055Z,102706.91
2023-02-04T06:31:10.064Z,102709.72
2023-02-04T06:33:37.124Z,102716.22
2023-02-04T06:36:03.932Z,102723.69
2023-02-04T06:38:30.707Z,102724.53
2023-02-04T06:40:57.459Z,102730.78
2023-02-04T06:43:25.420Z,102738.69
2023-02-04T06:45:52.263Z,102744.84
2023-02-04T06:48:19.148Z,102754.97
2023-02-04T06:50:45.919Z,102753.56
2023-02-04T06:53:12.719Z,102759.22
2023-02-04T06:55:39.534Z,102752.66
2023-02-04T06:58:06.426Z,102753.50
2023-02-04T07:00:33.782Z,102764.97
2023-02-04T07:03:00.844Z,102779.09
2023-02-04T07:05:27.642Z,102786.44
2023-02-04T07:07:54.389Z,102790.72
2023-02-04T07:10:21.206Z,102792.41
2023-02-04T07:12:48.029Z,102801.00
2023-02-04T07:15:15.218Z,102809.44
2023-02-04T07:17:42.089Z,102809.34
2023-02-04T07:20:09.209Z,102824.00
2023-02-04T07:22:35.992Z,102814.34
2023-02-04T07:25:02.863Z,102818.34
2023-02-04T07:27:29.754Z,102827.47
2023-02-04T07:29:56.496Z,102826.78
2023-02-04T07:32:23.270Z,102831.34
2023-02-04T07:34:50.024Z,102831.41
2023-02-04T07:37:16.821Z,102835.16
2023-02-04T07:39:43.603Z,102831.78
2023-02-04T07:42:10.343Z,102847.25
2023-02-04T07:44:37.607Z,102841.38
2023-02-04T07:47:04.373Z,102843.13
2023-02-04T07:49:31.140Z,102851.84
2023-02-04T07:51:58.010Z,102861.63
2023-02-04T07:54:24.787Z,102871.53
2023-02-04T07:56:51.531Z,102868.81
2023-02-04T07:59:18.267Z,102877.56
2023-02-04T08:01:45.104Z,102875.31
2023-02-04T08:04:11.914Z,102876.19
2023-02-04T08:06:38.647Z,102892.31
2023-02-04T08:09:05.582Z,102895.44
2023-02-04T08:11:32.334Z,102901.25
2023-02-04T08:13:59.104Z,102905.91
2023-02-04T08:16:25.965Z,102906.19
2023-02-04T08:18:52.722Z,102914.44
2023-02-04T08:21:19.629Z,102905.81
2023-02-04T08:23:46.403Z,102903.47
2023-02-04T08:26:13.182Z,102914.88
2023-02-04T08:28:39.908Z,102912.78
2023-02-04T08:31:07.109Z,102911.75
2023-02-04T08:33:34.199Z,102908.41
2023-02-04T08:36:00.975Z,102915.63
2023-02-04T08:38:27.795Z,102914.25
2023-02-04T08:40:54.678Z,102932.09
2023-02-04T08:43:21.479Z,102929.00
2023-02-04T08:45:48.237Z,102925.56
2023-02-04T08:48:15.050Z,102925.91
2023-02-04T08:50:41.813Z,102929.31
2023-02-04T08:53:08.580Z,102937.91
2023-02-04T08:55:35.344Z,102936.03
2023-02-04T08:58:02.892Z,102934.47
2023-02-04T09:00:30.353Z,102928.47
2023-02-04T09:02:57.366Z,102940.50
2023-02-04T09:05:24.192Z,102944.25
2023-02-04T09:07:50.959Z,102953.88
2023-02-04T09:10:17.772Z,102953.06
2023-02-04T09:12:44.562Z,102960.44
2023-02-04T09:15:11.410Z,102959.00
2023-02-04T09:17:38.835Z,102960.16
2023-02-04T09:20:05.612Z,102971.63
2023-02-04T09:22:32.463Z,102972.19
2023-02-04T09:24:59.190Z,102966.06
2023-02-04T09:27:25.934Z,102974.03
2023-02-04T09:29:52.696Z,102971.28
2023-02-04T09:32:19.460Z,102979.19
2023-02-04T09:34:46.206Z,102991.59
2023-02-04T09:37:12.983Z,102988.16
2023-02-04T09:39:39.712Z,102985.75
2023-02-04T09:42:06.448Z,102989.84
2023-02-04T09:44:33.209Z,102992.94
2023-02-04T09:46:59.940Z,102996.06
2023-02-04T09:49:26.764Z,102997.78
2023-02-04T09:51:53.527Z,102998.97
2023-02-04T09:54:20.323Z,103009.44
2023-02-04T09:56:47.663Z,103011.19
2023-02-04T09:59:14.454Z,103013.91
2023-02-04T10:01:41.323Z,103015.06
2023-02-04T10:04:08.045Z,103014.88
2023-02-04T10:06:34.846Z,103017.31
2023-02-04T10:09:01.572Z,103022.09
2023-02-04T10:11:28.386Z,103016.81
2023-02-04T10:13:55.186Z,103027.53
2023-02-04T10:16:22.012Z,103021.59
2023-02-04T10:18:48.816Z,103021.97
2023-02-04T10:21:15.575Z,103029.75
2023-02-04T10:23:42.350Z,103024.25
2023-02-04T10:26:09.118Z,103020.81
2023-02-04T10:28:35.918Z,103031.47
2023-02-04T10:31:02.810Z,103019.75
2023-02-04T10:33:29.669Z,103021.50
2023-02-04T10:35:56.426Z,103015.31
2023-02-04T10:38:23.166Z,103020.13
2023-02-04T10:40:49.960Z,103021.53
2023-02-04T10:43:16.767Z,103020.31
2023-02-04T10:45:43.518Z,103028.41
2023-02-04T10:48:10.247Z,103021.69
2023-02-04T10:50:37.012Z,103037.56
2023-02-04T10:53:22.307Z,103030.53
2023-02-04T10:55:49.481Z,103030.31
2023-02-04T10:58:16.303Z,103034.50
2023-02-04T11:00:43.091Z,103040.75
2023-02-04T11:03:09.884Z,103043.13
2023-02-04T11:05:36.633Z,103047.19
2023-02-04T11:08:03.370Z,103046.22
2023-02-04T11:10:30.237Z,103042.41
2023-02-04T11:12:57.054Z,103047.41
2023-02-04T11:15:23.795Z,103051.75
2023-02-04T11:17:50.526Z,103052.47
2023-02-04T11:20:17.370Z,103049.19
2023-02-04T11:22:44.209Z,103059.34
2023-02-04T11:25:11.229Z,103054.16
2023-02-04T11:27:38.098Z,103052.16
2023-02-04T11:30:05.175Z,103056.97
2023-02-04T11:32:31.959Z,103049.41
2023-02-04T11:34:58.793Z,103058.16
2023-02-04T11:37:25.539Z,103060.03
2023-02-04T11:39:52.286Z,103061.41
2023-02-04T11:42:19.043Z,103061.75
2023-02-04T11:44:45.926Z,103060.41
2023-02-04T11:47:12.669Z,103059.72
2023-02-04T11:49:39.395Z,103064.38
2023-02-04T11:52:08.571Z,103073.19
2023-02-04T11:54:35.724Z,103075.53
2023-02-04T11:57:02.499Z,103062.94
2023-02-04T11:59:29.278Z,103071.44
2023-02-04T12:01:56.021Z,103078.50
2023-02-04T12:04:22.766Z,103072.69
2023-02-04T12:06:49.497Z,103068.25
2023-02-04T12:09:16.262Z,103071.38
2023-02-04T12:11:42.991Z,103071.38
2023-02-04T12:14:09.751Z,103073.78
2023-02-04T12:16:36.534Z,103071.91
2023-02-04T12:19:03.266Z,103075.19
2023-02-04T12:21:30.026Z,103078.44
2023-02-04T12:23:56.772Z,103082.25
2023-02-04T12:26:23.501Z,103081.19
2023-02-04T12:28:50.248Z,103088.09
2023-02-04T12:31:17.208Z,103080.88
2023-02-04T12:33:43.995Z,103086.38
2023-02-04T12:36:10.760Z,103085.56
2023-02-04T12:38:37.521Z,103094.66
2023-02-04T12:41:04.275Z,103081.06
2023-02-04T12:43:31.002Z,103091.06
2023-02-04T12:45:57.747Z,103091.75
2023-02-04T12:48:25.903Z,103089.56
2023-02-04T12:50:52.718Z,103080.94
2023-02-04T12:53:19.471Z,103088.84
2023-02-04T12:55:46.216Z,103090.72
2023-02-04T12:58:12.938Z,103090.41
2023-02-04T13:00:39.788Z,103088.53
2023-02-04T13:03:06.650Z,103086.84
2023-02-04T13:05:33.983Z,103097.13
2023-02-04T13:08:00.931Z,103083.75
2023-02-04T13:10:27.680Z,103081.38
2023-02-04T13:12:54.402Z,103086.88
2023-02-04T13:15:21.166Z,103082.06
2023-02-04T13:17:48.340Z,103086.88
2023-02-04T13:20:15.166Z,103092.97
2023-02-04T13:22:41.914Z,103080.69
2023-02-04T13:25:10.098Z,103081.13
2023-02-04T13:27:36.840Z,103084.44
2023-02-04T13:30:03.636Z,103088.63
2023-02-04T13:32:30.407Z,103090.38
2023-02-04T13:34:57.169Z,103093.06
2023-02-04T13:37:23.937Z,103101.09
2023-02-04T13:39:50.735Z,103098.91
2023-02-04T13:42:17.526Z,103097.75
2023-02-04T13:44:45.591Z,103100.69
2023-02-04T13:47:12.327Z,103098.16
2023-02-04T13:49:39.070Z,103099.22
2023-02-04T13:52:05.898Z,103097.66
2023-02-04T13:54:32.684Z,103092.69
2023-02-04T13:56:59.416Z,103099.59
2023-02-04T13:59:26.256Z,103095.09
2023-02-04T14:01:53.021Z,103093.44
2023-02-04T14:04:19.762Z,103097.38
2023-02-04T14:06:46.514Z,103103.03
2023-02-04T14:09:13.349Z,103101.00
2023-02-04T14:11:40.173Z,103099.28
2023-02-04T14:14:06.924Z,103091.03
2023-02-04T14:16:35.216Z,103093.50
2023-02-04T14:19:03.040Z,103091.66
2023-02-04T14:21:29.853Z,103103.22
2023-02-04T14:23:56.598Z,103103.25
2023-02-04T14:26:23.322Z,103105.28
2023-02-04T14:28:50.096Z,103109.97
2023-02-04T14:31:16.890Z,103109.72
2023-02-04T14:33:43.725Z,103108.72
2023-02-04T14:36:10.513Z,103115.66
2023-02-04T14:38:39.040Z,103109.50
2023-02-04T14:41:05.804Z,103118.78
2023-02-04T14:43:37.018Z,103116.06
2023-02-04T14:46:05.452Z,103125.34
2023-02-04T14:48:32.477Z,103128.13
2023-02-04T14:50:59.228Z,103129.50
2023-02-04T14:53:26.117Z,103123.88
2023-02-04T14:55:52.897Z,103127.50
2023-02-04T14:58:19.922Z,103130.09
2023-02-04T15:00:46.692Z,103134.03
2023-02-04T15:03:14.415Z,103124.41
2023-02-04T15:05:41.189Z,103130.56
2023-02-04T15:08:08.085Z,103128.00
2023-02-04T15:10:35.065Z,103128.22
2023-02-04T15:13:02.167Z,103139.13
2023-02-04T15:15:28.894Z,103138.75
2023-02-04T15:17:55.620Z,103134.34
2023-02-04T15:20:22.386Z,103136.16
2023-02-04T15:22:52.359Z,103135.50
2023-02-04T15:25:19.094Z,103144.84
2023-02-04T15:27:45.930Z,103144.88
2023-02-04T15:30:12.747Z,103145.56
2023-02-04T15:32:40.218Z,103153.88
2023-02-04T15:35:08.093Z,103140.47
2023-02-04T15:37:34.827Z,103152.34
2023-02-04T15:40:01.591Z,103144.63
2023-02-04T15:42:29.285Z,103147.38
2023-02-04T15:44:56.382Z,103152.91
2023-02-04T15:47:23.125Z,103149.84
2023-02-04T15:49:49.881Z,103145.72
2023-02-04T15:52:24.807Z,103149.34
2023-02-04T15:54:52.269Z,103150.88
2023-02-04T15:57:19.025Z,103160.59
2023-02-04T15:59:45.761Z,103154.91
2023-02-04T16:02:12.593Z,103155.34
2023-02-04T16:04:41.520Z,103151.66
2023-02-04T16:07:08.445Z,103158.97
2023-02-04T16:09:35.326Z,103168.59
2023-02-04T16:12:02.093Z,103166.53
2023-02-04T16:14:28.820Z,103172.28
2023-02-04T16:16:55.648Z,103169.63
2023-02-04T16:19:22.381Z,103174.78
2023-02-04T16:21:49.115Z,103178.94
2023-02-04T16:24:18.303Z,103183.09
2023-02-04T16:26:45.035Z,103177.94
2023-02-04T16:29:11.755Z,103170.75
2023-02-04T16:31:38.613Z,103180.56
2023-02-04T16:34:05.391Z,103172.50
2023-02-04T16:36:32.135Z,103179.25
2023-02-04T16:38:59.912Z,103182.38
2023-02-04T16:41:26.657Z,103176.00
2023-02-04T16:43:53.450Z,103179.47
2023-02-04T16:46:20.254Z,103169.47
2023-02-04T16:48:47.006Z,103171.75
2023-02-04T16:51:13.766Z,103177.97
2023-02-04T16:53:40.581Z,103173.44
2023-02-04T16:56:07.319Z,103174.66
2023-02-04T16:58:34.085Z,103178.09
2023-02-04T17:01:00.867Z,103176.13
2023-02-04T17:03:28.322Z,103183.66
2023-02-04T17:05:55.101Z,103187.09
2023-02-04T17:08:21.985Z,103188.34
2023-02-04T17:11:07.610Z,103189.22
2023-02-04T17:13:34.392Z,103187.72
2023-02-04T17:16:01.636Z,103192.06
2023-02-04T17:18:28.577Z,103194.31
2023-02-04T17:20:55.356Z,103198.28
2023-02-04T17:23:22.166Z,103191.38
2023-02-04T17:25:49.027Z,103193.47
2023-02-04T17:28:15.856Z,103184.19
2023-02-04T17:30:42.653Z,103180.63
2023-02-04T17:33:09.377Z,103182.22
2023-02-04T17:35:36.416Z,103184.44
2023-02-04T17:38:03.320Z,103195.81
2023-02-04T17:40:30.298Z,103193.56
2023-02-04T17:42:58.291Z,103190.56
2023-02-04T17:45:25.038Z,103186.59
2023-02-04T17:47:51.839Z,103192.56
2023-02-04T17:50:18.650Z,103186.88
2023-02-04T17:52:45.402Z,103191.19
2023-02-04T17:55:12.132Z,103201.88
2023-02-04T17:57:38.903Z,103207.31
2023-02-04T18:00:05.643Z,103203.25
2023-02-04T18:02:32.889Z,103209.84
2023-02-04T18:05:00.122Z,103205.84
2023-02-04T18:07:26.882Z,103220.53
2023-02-04T18:09:53.700Z,103214.41
2023-02-04T18:12:20.470Z,103220.47
2023-02-04T18:14:47.281Z,103212.88
2023-02-04T18:17:14.551Z,103230.13
2023-02-04T18:19:41.370Z,103229.09
2023-02-04T18:22:08.647Z,103234.16
2023-02-04T18:24:36.189Z,103232.09
2023-02-04T18:27:04.462Z,103233.81
2023-02-04T18:29:31.237Z,103230.38
2023-02-04T18:31:58.044Z,103233.84
2023-02-04T18:34:26.532Z,103224.47
2023-02-04T18:36:55.112Z,103220.81
2023-02-04T18:39:21.873Z,103227.34
2023-02-04T18:41:48.637Z,103228.56
2023-02-04T18:44:15.418Z,103230.63
2023-02-04T18:46:42.142Z,103229.56
2023-02-04T18:49:09.020Z,103227.22
2023-02-04T18:51:35.825Z,103228.16
2023-02-04T18:54:02.602Z,103230.84
2023-02-04T18:56:29.354Z,103222.22
2023-02-04T18:58:56.135Z,103230.22
2023-02-04T19:01:23.866Z,103227.31
2023-02-04T19:03:50.692Z,103228.19
2023-02-04T19:06:17.415Z,103226.28
2023-02-04T19:08:44.259Z,103226.28
2023-02-04T19:11:11.049Z,103228.66
2023-02-04T19:13:37.972Z,103227.94
2023-02-04T19:16:04.787Z,103233.63
2023-02-04T19:18:32.223Z,103231.75
2023-02-04T19:20:58.962Z,103231.75
2023-02-04T19:23:25.743Z,103231.59
2023-02-04T19:25:52.603Z,103224.47
2023-02-04T19:28:19.393Z,103227.53
2023-02-04T19:30:46.354Z,103241.16
2023-02-04T19:33:13.132Z,103239.78
2023-02-04T19:35:40.044Z,103237.09
2023-02-04T19:38:06.802Z,103248.00
2023-02-04T19:40:33.625Z,103245.63
2023-02-04T19:43:00.369Z,103259.88
2023-02-04T19:45:27.161Z,103257.41
2023-02-04T19:47:53.914Z,103268.81
2023-02-04T19:50:20.670Z,103265.75
2023-02-04T19:52:47.442Z,103275.56
2023-02-04T19:55:14.184Z,103276.97
2023-02-04T19:57:40.917Z,103272.22
2023-02-04T20:00:07.650Z,103274.16
2023-02-04T20:02:34.701Z,103272.41
2023-02-04T20:05:01.548Z,103271.25
2023-02-04T20:07:28.311Z,103272.84
2023-02-04T20:09:55.087Z,103268.00
2023-02-04T20:12:21.833Z,103268.94
2023-02-04T20:14:49.553Z,103270.31
2023-02-04T20:17:16.350Z,103268.94
2023-02-04T20:19:43.079Z,103259.22
2023-02-04T20:22:09.830Z,103266.47
2023-02-04T20:24:36.594Z,103265.13
2023-02-04T20:27:03.390Z,103268.41
2023-02-04T20:29:30.147Z,103273.97
2023-02-04T20:31:56.922Z,103276.06
2023-02-04T20:34:23.817Z,103270.75
2023-02-04T20:36:51.898Z,103276.72
2023-02-04T20:39:18.650Z,103269.22
2023-02-04T20:41:45.454Z,103271.72
2023-02-04T20:44:12.208Z,103277.63
2023-02-04T20:46:38.960Z,103288.69
2023-02-04T20:49:05.721Z,103291.28
2023-02-04T20:51:32.451Z,103291.09
2023-02-04T20:54:01.890Z,103294.59
2023-02-04T20:56:28.704Z,103294.63
2023-02-04T20:58:55.480Z,103291.94
2023-02-04T21:01:22.330Z,103300.22
2023-02-04T21:03:51.058Z,103300.03
2023-02-04T21:06:17.798Z,103296.94
2023-02-04T21:08:44.695Z,103296.06
2023-02-04T21:11:11.435Z,103297.16
2023-02-04T21:13:38.780Z,103302.59
2023-02-04T21:16:06.147Z,103290.75
2023-02-04T21:18:34.511Z,103292.50
2023-02-04T21:21:01.295Z,103287.63
2023-02-04T21:23:28.178Z,103288.78
2023-02-04T21:25:54.967Z,103297.00
2023-02-04T21:28:21.708Z,103290.03
2023-02-04T21:30:48.559Z,103292.88
2023-02-04T21:33:17.024Z,103286.56
2023-02-04T21:35:43.989Z,103288.56
2023-02-04T21:38:10.970Z,103287.94
2023-02-04T21:40:38.057Z,103293.09
2023-02-04T21:43:06.298Z,103296.72
2023-02-04T21:45:33.511Z,103295.75
2023-02-04T21:48:00.538Z,103290.19
2023-02-04T21:50:27.456Z,103294.44
2023-02-04T21:52:54.206Z,103286.34
2023-02-04T21:55:23.953Z,103291.41
2023-02-04T21:57:50.768Z,103290.91
2023-02-04T22:00:17.714Z,103290.09
2023-02-04T22:02:44.441Z,103285.09
2023-02-04T22:05:11.214Z,103289.25
2023-02-04T22:07:38.026Z,103284.81
2023-02-04T22:10:05.397Z,103282.00
2023-02-04T22:12:32.138Z,103278.38
2023-02-04T22:14:58.898Z,103288.75
2023-02-04T22:17:25.676Z,103286.00
2023-02-04T22:19:52.416Z,103291.63
2023-02-04T22:22:19.283Z,103291.50
2023-02-04T22:24:46.101Z,103304.03
2023-02-04T22:27:12.864Z,103299.22
2023-02-04T22:29:39.650Z,103296.06
2023-02-04T22:32:06.436Z,103297.09
2023-02-04T22:34:33.231Z,103293.13
2023-02-04T22:37:00.129Z,103296.94
2023-02-04T22:39:26.896Z,103292.44
2023-02-04T22:41:53.629Z,103297.31
2023-02-04T22:44:20.399Z,103297.34
2023-02-04T22:46:47.670Z,103298.72
2023-02-04T22:49:14.491Z,103295.63
2023-02-04T22:51:41.332Z,103305.84
2023-02-04T22:54:08.111Z,103302.09
2023-02-04T22:56:34.880Z,103295.75
2023-02-04T22:59:01.668Z,103299.91
2023-02-04T23:01:28.395Z,103310.06
2023-02-04T23:03:55.179Z,103311.28
2023-02-04T23:06:22.457Z,103311.44
2023-02-04T23:08:49.464Z,103306.88
2023-02-04T23:11:18.333Z,103302.59
2023-02-04T23:13:45.526Z,103289.50
2023-02-04T23:16:12.346Z,103298.91
2023-02-04T23:18:39.263Z,103298.09
2023-02-04T23:21:06.052Z,103297.28
2023-02-04T23:23:32.839Z,103297.38
2023-02-04T23:26:03.256Z,103304.19
2023-02-04T23:28:30.012Z,103293.34
2023-02-04T23:30:56.845Z,103302.09
2023-02-04T23:33:23.636Z,103298.59
2023-02-04T23:35:50.379Z,103305.22
2023-02-04T23:38:17.111Z,103306.41
2023-02-04T23:40:43.831Z,103303.69
2023-02-04T23:43:10.945Z,103308.97
2023-02-04T23:45:37.804Z,103311.78
2023-02-04T23:48:05.032Z,103318.09
2023-02-04T23:50:31.779Z,103309.97
2023-02-04T23:52:58.545Z,103311.25
2023-02-04T23:55:25.370Z,103315.91
2023-02-04T23:57:52.112Z,103315.41
